createdAt,value
2019-03-03T00:02:12.334Z,7.40
2019-03-03T00:04:42.827Z,7.40
2019-03-03T00:07:13.293Z,7.40
2019-03-03T00:09:43.817Z,7.30
2019-03-03T00:12:14.347Z,7.40
2019-03-03T00:14:44.750Z,7.30
2019-03-03T00:17:15.260Z,7.40
2019-03-03T00:19:45.698Z,7.40
2019-03-03T00:22:16.095Z,7.40
2019-03-03T00:24:46.567Z,7.40
2019-03-03T00:27:17.023Z,7.40
2019-03-03T00:29:47.488Z,7.40
2019-03-03T00:32:17.979Z,7.50
2019-03-03T00:34:49.541Z,7.40
2019-03-03T00:37:25.661Z,7.40
2019-03-03T00:40:13.364Z,7.40
2019-03-03T00:43:08.781Z,7.50
2019-03-03T00:45:57.816Z,7.50
2019-03-03T00:48:54.810Z,7.40
2019-03-03T00:51:38.922Z,7.40
2019-03-03T00:54:27.190Z,7.40
2019-03-03T00:57:06.610Z,7.40
2019-03-03T00:59:43.685Z,7.30
2019-03-03T01:02:31.623Z,7.30
2019-03-03T01:05:20.871Z,7.40
2019-03-03T01:08:28.397Z,7.40
2019-03-03T01:11:11.110Z,7.50
2019-03-03T01:13:51.365Z,7.50
2019-03-03T01:16:43.386Z,7.50
2019-03-03T01:19:29.075Z,7.50
2019-03-03T01:22:15.798Z,7.50
2019-03-03T01:24:55.586Z,7.50
2019-03-03T01:27:27.118Z,7.50
2019-03-03T01:29:57.475Z,7.50
2019-03-03T01:32:28.086Z,7.50
2019-03-03T01:34:58.457Z,7.50
2019-03-03T01:37:28.812Z,7.50
2019-03-03T01:39:59.306Z,7.50
2019-03-03T01:42:29.657Z,7.50
2019-03-03T01:44:59.980Z,7.50
2019-03-03T01:47:30.434Z,7.50
2019-03-03T01:50:00.924Z,7.50
2019-03-03T01:52:31.364Z,7.60
2019-03-03T01:55:01.683Z,7.60
2019-03-03T01:57:32.150Z,7.50
2019-03-03T02:00:02.521Z,7.50
2019-03-03T02:02:33.203Z,7.50
2019-03-03T02:05:03.634Z,7.50
2019-03-03T02:07:34.114Z,7.60
2019-03-03T02:10:04.718Z,7.60
2019-03-03T02:12:35.283Z,7.60
2019-03-03T02:15:06.393Z,7.70
2019-03-03T02:17:36.809Z,7.70
2019-03-03T02:20:07.917Z,7.70
2019-03-03T02:22:38.259Z,7.70
2019-03-03T02:25:09.040Z,7.70
2019-03-03T02:27:39.440Z,7.60
2019-03-03T02:30:15.749Z,7.70
2019-03-03T02:32:46.240Z,7.70
2019-03-03T02:35:17.141Z,7.70
2019-03-03T02:37:47.908Z,7.70
2019-03-03T02:40:18.818Z,7.70
2019-03-03T02:42:49.229Z,7.70
2019-03-03T02:45:20.321Z,7.70
2019-03-03T02:47:50.800Z,7.70
2019-03-03T02:50:21.167Z,7.70
2019-03-03T02:52:51.589Z,7.70
2019-03-03T02:55:21.909Z,7.70
2019-03-03T02:57:52.331Z,7.80
2019-03-03T03:00:23.052Z,7.80
2019-03-03T03:02:58.195Z,7.90
2019-03-03T03:05:46.687Z,7.80
2019-03-03T03:08:23.838Z,7.70
2019-03-03T03:11:18.978Z,7.80
2019-03-03T03:14:08.238Z,7.70
2019-03-03T03:17:04.158Z,7.80
2019-03-03T03:20:08.850Z,7.70
2019-03-03T03:22:49.103Z,7.80
2019-03-03T03:25:41.431Z,7.70
2019-03-03T03:28:22.496Z,7.70
2019-03-03T03:31:02.572Z,7.60
2019-03-03T03:33:48.874Z,7.60
2019-03-03T03:36:28.962Z,7.60
2019-03-03T03:39:09.052Z,7.60
2019-03-03T03:41:56.934Z,7.70
2019-03-03T03:44:58.474Z,7.80
2019-03-03T03:47:37.188Z,7.80
2019-03-03T03:50:20.215Z,7.80
2019-03-03T03:53:08.588Z,7.80
2019-03-03T03:56:05.079Z,7.80
2019-03-03T03:59:12.807Z,7.80
2019-03-03T04:02:00.787Z,7.80
2019-03-03T04:04:48.761Z,7.80
2019-03-03T04:07:43.727Z,7.70
2019-03-03T04:10:35.695Z,7.70
2019-03-03T04:13:24.863Z,7.80
2019-03-03T04:16:29.796Z,7.80
2019-03-03T04:19:06.527Z,7.70
2019-03-03T04:21:50.310Z,7.70
2019-03-03T04:24:42.406Z,7.70
2019-03-03T04:27:30.668Z,7.70
2019-03-03T04:30:11.951Z,7.70
2019-03-03T04:33:04.096Z,7.70
2019-03-03T04:35:43.403Z,7.80
2019-03-03T04:38:23.812Z,7.70
2019-03-03T04:41:19.538Z,7.60
2019-03-03T04:44:06.924Z,7.60
2019-03-03T04:46:58.360Z,7.70
2019-03-03T04:49:46.417Z,7.70
2019-03-03T04:52:31.471Z,7.60
2019-03-03T04:55:23.524Z,7.70
2019-03-03T04:58:10.097Z,7.70
2019-03-03T05:00:58.332Z,7.70
2019-03-03T05:03:46.489Z,7.70
2019-03-03T05:06:29.710Z,7.80
2019-03-03T05:09:11.078Z,7.70
2019-03-03T05:12:43.238Z,7.80
2019-03-03T05:15:38.123Z,7.80
2019-03-03T05:18:27.436Z,7.70
2019-03-03T05:20:57.895Z,7.70
2019-03-03T05:23:28.256Z,7.60
2019-03-03T05:25:58.666Z,7.70
2019-03-03T05:28:29.045Z,7.70
2019-03-03T05:30:59.963Z,7.70
2019-03-03T05:33:30.421Z,7.70
2019-03-03T05:36:00.736Z,7.70
2019-03-03T05:38:31.153Z,7.80
2019-03-03T05:41:01.654Z,7.80
2019-03-03T05:43:31.963Z,7.80
2019-03-03T05:46:02.345Z,7.80
2019-03-03T05:48:32.750Z,7.80
2019-03-03T05:51:03.226Z,7.80
2019-03-03T05:53:33.583Z,7.80
2019-03-03T05:56:04.010Z,7.80
2019-03-03T05:58:34.453Z,7.90
2019-03-03T06:01:05.015Z,7.80
2019-03-03T06:03:35.343Z,7.80
2019-03-03T06:06:05.750Z,7.80
2019-03-03T06:08:36.262Z,7.80
2019-03-03T06:11:06.794Z,7.90
2019-03-03T06:13:37.073Z,7.90
2019-03-03T06:16:07.546Z,7.90
2019-03-03T06:18:37.980Z,7.90
2019-03-03T06:21:08.511Z,7.80
2019-03-03T06:23:38.918Z,7.90
2019-03-03T06:26:09.166Z,8.00
2019-03-03T06:28:39.656Z,8.00
2019-03-03T06:31:10.130Z,8.00
2019-03-03T06:33:40.580Z,8.00
2019-03-03T06:36:11.046Z,7.90
2019-03-03T06:38:41.478Z,7.80
2019-03-03T06:41:11.999Z,7.80
2019-03-03T06:43:42.455Z,7.90
2019-03-03T06:46:12.884Z,8.00
2019-03-03T06:48:43.673Z,8.20
2019-03-03T06:51:14.099Z,8.30
2019-03-03T06:53:48.913Z,8.50
2019-03-03T06:56:19.407Z,8.70
2019-03-03T06:58:49.827Z,8.80
2019-03-03T07:01:20.268Z,9.10
2019-03-03T07:03:50.702Z,9.20
2019-03-03T07:06:21.080Z,9.30
2019-03-03T07:08:51.419Z,9.60
2019-03-03T07:11:21.856Z,9.70
2019-03-03T07:13:52.301Z,9.80
2019-03-03T07:16:22.650Z,10.30
2019-03-03T07:18:53.157Z,11.50
2019-03-03T07:21:23.555Z,11.70
2019-03-03T07:23:54.031Z,11.40
2019-03-03T07:26:24.525Z,10.90
2019-03-03T07:28:55.344Z,10.50
2019-03-03T07:31:25.693Z,10.40
2019-03-03T07:33:58.899Z,10.40
2019-03-03T07:36:29.336Z,10.40
2019-03-03T07:38:59.777Z,10.50
2019-03-03T07:41:30.833Z,10.40
2019-03-03T07:44:01.363Z,10.50
2019-03-03T07:46:31.937Z,10.20
2019-03-03T07:49:02.501Z,10.10
2019-03-03T07:51:32.937Z,9.90
2019-03-03T07:54:03.298Z,9.90
2019-03-03T07:56:33.711Z,9.90
2019-03-03T07:59:04.193Z,9.80
2019-03-03T08:01:34.484Z,9.80
2019-03-03T08:04:05.160Z,9.90
2019-03-03T08:06:39.733Z,10.30
2019-03-03T08:09:11.133Z,10.50
2019-03-03T08:11:41.620Z,10.80
2019-03-03T08:14:12.184Z,11.20
2019-03-03T08:16:42.609Z,11.10
2019-03-03T08:19:14.667Z,11.30
2019-03-03T08:21:45.133Z,11.10
2019-03-03T08:24:15.544Z,11.00
2019-03-03T08:26:45.749Z,10.80
2019-03-03T08:29:16.172Z,10.60
2019-03-03T08:31:46.494Z,10.60
2019-03-03T08:34:16.946Z,10.60
2019-03-03T08:36:47.498Z,10.60
2019-03-03T08:39:17.886Z,10.50
2019-03-03T08:41:52.648Z,10.70
2019-03-03T08:44:35.231Z,10.80
2019-03-03T08:47:10.463Z,10.80
2019-03-03T08:49:57.756Z,10.90
2019-03-03T08:52:40.902Z,11.10
2019-03-03T08:55:18.914Z,11.40
2019-03-03T08:58:11.169Z,12.00
2019-03-03T09:00:48.125Z,12.60
2019-03-03T09:03:37.440Z,13.60
2019-03-03T09:06:25.664Z,15.80
2019-03-03T09:09:19.621Z,17.20
2019-03-03T09:12:08.918Z,18.90
2019-03-03T09:14:51.080Z,19.40
2019-03-03T09:17:49.341Z,22.30
2019-03-03T09:20:35.578Z,24.00
2019-03-03T09:23:23.517Z,23.60
2019-03-03T09:26:05.161Z,23.50
2019-03-03T09:28:46.444Z,24.20
2019-03-03T09:31:44.791Z,24.40
2019-03-03T09:34:32.690Z,23.80
2019-03-03T09:37:20.980Z,24.40
2019-03-03T09:40:28.877Z,24.60
2019-03-03T09:43:24.293Z,25.10
2019-03-03T09:46:12.234Z,24.90
2019-03-03T09:49:00.669Z,24.80
2019-03-03T09:51:59.255Z,25.50
2019-03-03T09:54:50.380Z,25.30
2019-03-03T09:57:48.537Z,23.50
2019-03-03T10:00:43.862Z,23.80
2019-03-03T10:03:27.771Z,23.60
2019-03-03T10:06:20.120Z,22.90
2019-03-03T10:09:09.410Z,23.00
2019-03-03T10:12:01.550Z,22.70
2019-03-03T10:14:40.418Z,23.10
2019-03-03T10:17:25.902Z,22.90
2019-03-03T10:20:14.648Z,23.10
2019-03-03T10:23:02.684Z,22.50
2019-03-03T10:25:44.188Z,23.10
2019-03-03T10:28:32.163Z,23.60
2019-03-03T10:31:21.457Z,23.40
2019-03-03T10:34:08.051Z,23.60
2019-03-03T10:36:48.031Z,23.80
2019-03-03T10:39:23.676Z,23.10
2019-03-03T10:42:07.696Z,22.20
2019-03-03T10:45:00.219Z,22.50
2019-03-03T10:47:48.422Z,23.50
2019-03-03T10:50:43.273Z,23.40
2019-03-03T10:53:22.437Z,23.30
2019-03-03T10:56:26.756Z,23.30
2019-03-03T10:59:03.644Z,21.80
2019-03-03T11:01:55.987Z,20.30
2019-03-03T11:04:51.295Z,19.80
2019-03-03T11:07:39.640Z,19.70
2019-03-03T11:10:18.032Z,19.20
2019-03-03T11:13:08.155Z,18.40
2019-03-03T11:15:52.862Z,18.40
2019-03-03T11:18:42.417Z,18.30
2019-03-03T11:21:30.646Z,18.50
2019-03-03T11:24:07.383Z,18.40
2019-03-03T11:26:45.658Z,18.60
2019-03-03T11:29:46.993Z,18.50
2019-03-03T11:32:23.996Z,18.60
2019-03-03T11:35:16.137Z,18.20
2019-03-03T11:38:05.439Z,18.20
2019-03-03T11:40:41.815Z,18.10
2019-03-03T11:43:18.624Z,17.60
2019-03-03T11:46:20.281Z,17.80
2019-03-03T11:49:24.883Z,17.70
2019-03-03T11:52:26.377Z,17.70
2019-03-03T11:55:15.673Z,17.40
2019-03-03T11:58:02.803Z,17.40
2019-03-03T12:00:52.094Z,17.70
2019-03-03T12:03:53.484Z,18.50
2019-03-03T12:06:38.499Z,18.70
2019-03-03T12:09:22.929Z,18.50
2019-03-03T12:12:06.066Z,19.20
2019-03-03T12:15:04.485Z,19.20
2019-03-03T12:17:50.372Z,19.00
2019-03-03T12:20:54.895Z,19.10
2019-03-03T12:23:36.861Z,19.20
2019-03-03T12:26:22.951Z,19.80
2019-03-03T12:29:21.738Z,19.50
2019-03-03T12:32:11.069Z,19.20
2019-03-03T12:35:03.502Z,18.90
2019-03-03T12:37:53.150Z,19.50
2019-03-03T12:40:41.478Z,18.90
2019-03-03T12:43:30.605Z,18.50
2019-03-03T12:46:22.801Z,18.20
2019-03-03T12:49:03.390Z,18.60
2019-03-03T12:51:52.092Z,18.30
2019-03-03T12:54:43.797Z,18.30
2019-03-03T12:57:33.143Z,18.30
2019-03-03T13:00:37.824Z,18.40
2019-03-03T13:03:27.184Z,17.90
2019-03-03T13:06:24.070Z,18.40
2019-03-03T13:09:05.161Z,18.50
2019-03-03T13:12:06.497Z,18.70
2019-03-03T13:14:52.713Z,19.00
2019-03-03T13:17:54.335Z,19.00
2019-03-03T13:20:52.933Z,18.90
2019-03-03T13:23:29.304Z,18.60
2019-03-03T13:26:20.942Z,18.20
2019-03-03T13:29:05.000Z,18.00
2019-03-03T13:31:53.215Z,18.00
2019-03-03T13:34:42.405Z,17.60
2019-03-03T13:37:31.592Z,17.40
2019-03-03T13:40:20.554Z,17.40
2019-03-03T13:43:00.216Z,17.50
2019-03-03T13:45:33.942Z,17.70
2019-03-03T13:48:04.387Z,17.70
2019-03-03T13:50:35.057Z,17.80
2019-03-03T13:53:05.648Z,17.70
2019-03-03T13:55:36.320Z,17.60
2019-03-03T13:58:09.970Z,17.40
2019-03-03T14:00:40.471Z,16.90
2019-03-03T14:03:10.783Z,16.50
2019-03-03T14:05:41.208Z,16.20
2019-03-03T14:08:11.646Z,15.90
2019-03-03T14:10:42.082Z,15.60
2019-03-03T14:13:12.466Z,15.70
2019-03-03T14:15:42.909Z,15.60
2019-03-03T14:18:13.533Z,15.60
2019-03-03T14:20:44.164Z,15.60
2019-03-03T14:23:14.615Z,15.60
2019-03-03T14:25:45.055Z,15.70
2019-03-03T14:28:15.468Z,15.70
2019-03-03T14:30:45.974Z,15.50
2019-03-03T14:33:16.379Z,15.40
2019-03-03T14:35:46.719Z,15.40
2019-03-03T14:38:17.353Z,15.40
2019-03-03T14:40:48.212Z,15.60
2019-03-03T14:43:18.973Z,15.40
2019-03-03T14:45:49.416Z,15.10
2019-03-03T14:48:19.758Z,14.80
2019-03-03T14:50:50.457Z,14.70
2019-03-03T14:53:21.134Z,14.80
2019-03-03T14:55:51.756Z,14.80
2019-03-03T14:58:22.247Z,14.70
2019-03-03T15:00:52.947Z,14.70
2019-03-03T15:03:23.565Z,14.60
2019-03-03T15:05:54.204Z,14.70
2019-03-03T15:08:24.834Z,14.60
2019-03-03T15:10:55.566Z,14.70
2019-03-03T15:13:26.015Z,14.70
2019-03-03T15:15:56.682Z,14.70
2019-03-03T15:18:27.251Z,14.60
2019-03-03T15:20:57.955Z,14.50
2019-03-03T15:23:28.759Z,14.40
2019-03-03T15:25:59.345Z,14.30
2019-03-03T15:28:29.882Z,14.20
2019-03-03T15:31:00.389Z,14.20
2019-03-03T15:33:31.042Z,14.10
2019-03-03T15:36:01.803Z,14.10
2019-03-03T15:38:32.891Z,14.00
2019-03-03T15:41:03.678Z,13.90
2019-03-03T15:43:34.075Z,13.80
2019-03-03T15:46:04.521Z,13.80
2019-03-03T15:48:35.345Z,13.70
2019-03-03T15:51:06.042Z,13.80
2019-03-03T15:53:36.574Z,13.70
2019-03-03T15:56:07.171Z,13.80
2019-03-03T15:58:40.629Z,13.70
2019-03-03T16:01:17.397Z,13.70
2019-03-03T16:03:50.218Z,13.50
2019-03-03T16:06:21.027Z,13.60
2019-03-03T16:08:51.638Z,13.50
2019-03-03T16:11:22.160Z,13.60
2019-03-03T16:13:54.244Z,13.60
2019-03-03T16:16:24.744Z,13.50
2019-03-03T16:18:55.123Z,13.50
2019-03-03T16:21:25.578Z,13.40
2019-03-03T16:23:56.280Z,13.40
2019-03-03T16:26:26.851Z,13.20
2019-03-03T16:28:58.131Z,13.20
2019-03-03T16:31:32.445Z,13.20
2019-03-03T16:34:05.009Z,13.00
2019-03-03T16:36:36.441Z,13.00
2019-03-03T16:39:09.398Z,13.00
2019-03-03T16:41:39.898Z,13.00
2019-03-03T16:44:10.564Z,13.00
2019-03-03T16:46:41.960Z,12.90
2019-03-03T16:49:12.691Z,12.80
2019-03-03T16:51:43.198Z,12.80
2019-03-03T16:54:13.516Z,12.70
2019-03-03T16:56:45.226Z,12.50
2019-03-03T16:59:16.836Z,12.50
2019-03-03T17:01:50.564Z,12.40
2019-03-03T17:04:20.842Z,12.40
2019-03-03T17:06:51.440Z,12.30
2019-03-03T17:09:22.138Z,12.30
2019-03-03T17:11:52.826Z,12.30
2019-03-03T17:14:25.487Z,12.20
2019-03-03T17:16:56.808Z,12.10
2019-03-03T17:19:28.695Z,12.20
2019-03-03T17:22:02.243Z,12.20
2019-03-03T17:24:32.968Z,12.10
2019-03-03T17:27:06.472Z,12.00
2019-03-03T17:29:40.311Z,12.00
2019-03-03T17:32:11.038Z,11.90
2019-03-03T17:34:41.631Z,11.90
2019-03-03T17:37:12.298Z,11.90
2019-03-03T17:39:42.857Z,11.90
2019-03-03T17:42:13.252Z,12.00
2019-03-03T17:44:45.496Z,12.00
2019-03-03T17:47:16.458Z,11.90
2019-03-03T17:49:47.098Z,11.90
2019-03-03T17:52:17.845Z,11.90
2019-03-03T17:54:48.328Z,11.90
2019-03-03T17:57:18.788Z,11.90
2019-03-03T17:59:50.552Z,11.80
2019-03-03T18:02:21.145Z,11.80
2019-03-03T18:04:51.574Z,11.80
2019-03-03T18:07:22.093Z,11.70
2019-03-03T18:09:52.646Z,11.70
2019-03-03T18:12:24.139Z,11.70
2019-03-03T18:14:54.996Z,11.70
2019-03-03T18:17:25.514Z,11.70
2019-03-03T18:19:56.658Z,11.70
2019-03-03T18:22:26.958Z,11.60
2019-03-03T18:24:57.648Z,11.50
2019-03-03T18:27:28.180Z,11.40
2019-03-03T18:29:58.557Z,11.40
2019-03-03T18:32:29.098Z,11.30
2019-03-03T18:34:59.485Z,11.30
2019-03-03T18:37:29.889Z,11.10
2019-03-03T18:40:00.351Z,11.10
2019-03-03T18:42:31.189Z,11.10
2019-03-03T18:45:01.684Z,11.10
2019-03-03T18:47:32.148Z,11.10
2019-03-03T18:50:02.619Z,11.10
2019-03-03T18:52:33.046Z,11.10
2019-03-03T18:55:03.503Z,11.10
2019-03-03T18:57:33.846Z,11.00
2019-03-03T19:00:04.786Z,11.10
2019-03-03T19:02:35.285Z,11.10
2019-03-03T19:05:06.010Z,11.10
2019-03-03T19:07:36.658Z,11.20
2019-03-03T19:10:10.071Z,11.10
2019-03-03T19:12:40.473Z,11.10
2019-03-03T19:15:14.136Z,11.10
2019-03-03T19:17:44.555Z,11.00
2019-03-03T19:20:17.578Z,11.00
2019-03-03T19:22:48.136Z,11.10
2019-03-03T19:25:19.014Z,11.10
2019-03-03T19:27:50.105Z,11.00
2019-03-03T19:30:25.356Z,11.10
2019-03-03T19:33:04.134Z,11.10
2019-03-03T19:35:37.692Z,11.00
2019-03-03T19:38:08.065Z,11.10
2019-03-03T19:40:49.041Z,11.00
2019-03-03T19:43:19.532Z,11.00
2019-03-03T19:45:50.325Z,11.00
2019-03-03T19:48:20.899Z,10.90
2019-03-03T19:50:51.263Z,10.90
2019-03-03T19:53:21.682Z,10.80
2019-03-03T19:55:52.119Z,10.70
2019-03-03T19:58:22.485Z,10.70
2019-03-03T20:00:53.039Z,10.60
2019-03-03T20:03:23.750Z,10.60
2019-03-03T20:05:54.803Z,10.50
2019-03-03T20:08:25.567Z,10.40
2019-03-03T20:11:01.091Z,10.30
2019-03-03T20:13:32.021Z,10.20
2019-03-03T20:16:07.128Z,10.00
2019-03-03T20:18:44.036Z,9.90
2019-03-03T20:21:14.782Z,9.80
2019-03-03T20:23:45.196Z,9.70
2019-03-03T20:26:15.941Z,9.60
2019-03-03T20:28:46.459Z,9.50
2019-03-03T20:31:19.934Z,9.40
2019-03-03T20:33:53.109Z,9.30
2019-03-03T20:36:24.148Z,9.30
2019-03-03T20:38:54.913Z,9.20
2019-03-03T20:41:25.760Z,9.20
2019-03-03T20:43:56.551Z,9.20
2019-03-03T20:46:27.044Z,9.20
2019-03-03T20:48:57.768Z,9.10
2019-03-03T20:51:28.174Z,9.10
2019-03-03T20:54:02.390Z,9.00
2019-03-03T20:56:35.900Z,8.90
2019-03-03T20:59:08.857Z,8.90
2019-03-03T21:01:41.533Z,9.00
2019-03-03T21:04:12.648Z,9.10
2019-03-03T21:06:43.397Z,9.20
2019-03-03T21:09:15.438Z,9.30
2019-03-03T21:11:46.019Z,9.40
2019-03-03T21:14:16.451Z,9.40
2019-03-03T21:16:48.266Z,9.60
2019-03-03T21:19:19.069Z,9.60
2019-03-03T21:21:49.956Z,9.60
2019-03-03T21:24:20.492Z,9.70
2019-03-03T21:26:51.106Z,9.60
2019-03-03T21:29:21.851Z,9.70
2019-03-03T21:31:52.775Z,9.70
2019-03-03T21:34:23.510Z,9.70
2019-03-03T21:36:54.403Z,9.60
2019-03-03T21:39:24.866Z,9.60
2019-03-03T21:42:00.907Z,9.60
2019-03-03T21:44:31.346Z,9.70
2019-03-03T21:47:01.849Z,9.70
2019-03-03T21:49:32.368Z,9.60
2019-03-03T21:52:03.597Z,9.60
2019-03-03T21:54:34.046Z,9.40
2019-03-03T21:57:04.511Z,9.30
2019-03-03T21:59:34.985Z,9.30
2019-03-03T22:02:05.460Z,9.30
2019-03-03T22:04:35.892Z,9.40
2019-03-03T22:07:06.526Z,9.30
2019-03-03T22:09:36.818Z,9.30
2019-03-03T22:12:07.352Z,9.30
2019-03-03T22:14:37.828Z,9.40
2019-03-03T22:17:08.251Z,9.40
2019-03-03T22:19:38.648Z,9.30
2019-03-03T22:22:09.122Z,9.40
2019-03-03T22:24:39.452Z,9.40
2019-03-03T22:27:09.987Z,9.40
2019-03-03T22:29:40.440Z,9.40
2019-03-03T22:32:10.901Z,9.40
2019-03-03T22:34:41.302Z,9.40
2019-03-03T22:37:11.667Z,9.40
2019-03-03T22:39:42.170Z,9.30
2019-03-03T22:42:12.601Z,9.30
2019-03-03T22:44:43.141Z,9.30
2019-03-03T22:47:13.602Z,9.40
2019-03-03T22:49:43.979Z,9.30
2019-03-03T22:52:14.471Z,9.40
2019-03-03T22:54:44.831Z,9.40
2019-03-03T22:57:15.166Z,9.40
2019-03-03T22:59:45.663Z,9.40
2019-03-03T23:02:17.798Z,9.40
2019-03-03T23:05:17.832Z,9.40
2019-03-03T23:08:04.266Z,9.40
2019-03-03T23:11:23.979Z,9.50
2019-03-03T23:14:32.111Z,9.50
2019-03-03T23:17:52.831Z,9.50
2019-03-03T23:20:48.219Z,9.50
2019-03-03T23:24:10.759Z,9.50
2019-03-03T23:26:41.075Z,9.50
2019-03-03T23:29:11.546Z,9.50
2019-03-03T23:31:41.996Z,9.60
2019-03-03T23:34:12.433Z,9.60
2019-03-03T23:36:42.967Z,9.60
2019-03-03T23:39:13.380Z,9.60
2019-03-03T23:41:43.823Z,9.50
2019-03-03T23:44:14.155Z,9.50
2019-03-03T23:46:44.471Z,9.60
2019-03-03T23:49:15.149Z,9.70
2019-03-03T23:51:45.529Z,9.60
2019-03-03T23:54:15.896Z,9.60
2019-03-03T23:56:46.263Z,9.60
2019-03-03T23:59:16.682Z,9.60
